Time;durP1;ratioP1;P1;durP2;ratioP2;P2;SDS_P1;SDS_P2;PMS_P1;PMS_P2;Temp;Humidity;BMP_temperature;BMP_pressure;BME280_temperature;BME280_humidity;BME280_pressure;Samples;Min_cycle;Max_cycle;Signal;HPM_P1;HPM_P2
2021/11/02 00:02:57;;;;;;;2.43;1.80;;;;;;;;;;4977476;28;20529;-71
2021/11/02 00:06:02;;;;;;;4.10;2.03;;;;;;;;;;4977064;28;20195;-71
2021/11/02 00:09:06;;;;;;;3.17;2.50;;;;;;;;;;4977173;28;20214;-71
2021/11/02 00:12:10;;;;;;;4.00;2.80;;;;;;;;;;5000647;28;20222;-71
2021/11/02 00:15:20;;;;;;;4.10;2.90;;;;;;;;;;4995396;28;20210;-71
2021/11/02 00:18:26;;;;;;;5.03;3.37;;;;;;;;;;4986816;28;20558;-71
2021/11/02 00:21:34;;;;;;;3.57;3.17;;;;;;;;;;4986085;28;20226;-71
2021/11/02 00:24:44;;;;;;;4.33;3.63;;;;;;;;;;4996361;28;20548;-71
2021/11/02 00:27:49;;;;;;;4.50;4.10;;;;;;;;;;4995958;28;20661;-71
2021/11/02 00:30:53;;;;;;;6.10;3.73;;;;;;;;;;4994763;28;20226;-71
2021/11/02 00:33:57;;;;;;;5.20;4.37;;;;;;;;;;4994951;28;20182;-71
2021/11/02 00:37:02;;;;;;;5.10;4.50;;;;;;;;;;4995530;28;20206;-71
2021/11/02 00:40:08;;;;;;;5.03;4.10;;;;;;;;;;4995514;28;20190;-71
2021/11/02 00:43:13;;;;;;;5.10;4.60;;;;;;;;;;4994901;28;20190;-71
2021/11/02 00:46:26;;;;;;;5.60;4.80;;;;;;;;;;4995858;28;20178;-71
2021/11/02 00:49:30;;;;;;;6.30;5.13;;;;;;;;;;4995874;28;20574;-71
2021/11/02 00:52:37;;;;;;;7.30;5.40;;;;;;;;;;4994883;28;20214;-71
2021/11/02 00:55:41;;;;;;;6.43;5.53;;;;;;;;;;4986072;28;20186;-71
2021/11/02 00:58:46;;;;;;;5.73;4.97;;;;;;;;;;4986539;28;20178;-71
2021/11/02 01:01:50;;;;;;;9.67;5.73;;;;;;;;;;4993799;28;20226;-71
2021/11/02 01:04:54;;;;;;;5.90;5.30;;;;;;;;;;4976034;28;20206;-71
2021/11/02 01:07:58;;;;;;;9.17;5.20;;;;;;;;;;4988108;28;20201;-71
2021/11/02 01:11:02;;;;;;;5.30;4.80;;;;;;;;;;4994554;28;20226;-71
2021/11/02 01:14:07;;;;;;;6.27;4.60;;;;;;;;;;4993985;28;20214;-71
2021/11/02 01:17:11;;;;;;;7.00;4.57;;;;;;;;;;4995033;28;20641;-71
2021/11/02 01:20:15;;;;;;;5.00;4.10;;;;;;;;;;4993904;28;20649;-71
2021/11/02 01:23:21;;;;;;;4.30;3.37;;;;;;;;;;4994013;28;20630;-71
2021/11/02 01:26:26;;;;;;;4.40;4.00;;;;;;;;;;4994708;28;20186;-71
2021/11/02 01:29:30;;;;;;;4.40;3.67;;;;;;;;;;4974805;28;20191;-71
2021/11/02 01:32:34;;;;;;;2.73;2.40;;;;;;;;;;4974879;28;20226;-71
2021/11/02 01:35:38;;;;;;;2.93;2.50;;;;;;;;;;4974691;28;20187;-71
2021/11/02 01:38:45;;;;;;;2.90;2.57;;;;;;;;;;4988898;28;20198;-71
2021/11/02 01:41:50;;;;;;;3.50;2.67;;;;;;;;;;4985230;28;20219;-71
2021/11/02 01:44:56;;;;;;;2.83;2.63;;;;;;;;;;4963013;28;20219;-71
2021/11/02 01:48:06;;;;;;;5.20;2.73;;;;;;;;;;4970006;28;20194;-71
2021/11/02 01:51:22;;;;;;;2.77;2.00;;;;;;;;;;4993195;28;20692;-71
2021/11/02 01:54:27;;;;;;;2.33;2.13;;;;;;;;;;4971270;28;20198;-71
2021/11/02 01:57:33;;;;;;;3.13;2.33;;;;;;;;;;4993705;28;20190;-71
2021/11/02 02:00:38;;;;;;;4.33;2.53;;;;;;;;;;4978267;28;20194;-71
2021/11/02 02:04:05;;;;;;;2.90;2.40;;;;;;;;;;4993639;28;20202;-71
2021/11/02 02:07:25;;;;;;;2.63;2.30;;;;;;;;;;4993974;28;20194;-71
2021/11/02 02:10:40;;;;;;;4.20;2.70;;;;;;;;;;4992727;28;20213;-71
2021/11/02 02:13:54;;;;;;;2.90;2.60;;;;;;;;;;4993405;28;20190;-71
2021/11/02 02:17:01;;;;;;;3.17;2.87;;;;;;;;;;4974239;28;20183;-70
2021/11/02 02:20:09;;;;;;;3.10;2.80;;;;;;;;;;4987173;28;20210;-71
2021/11/02 02:23:51;;;;;;;3.27;2.90;;;;;;;;;;4993527;28;20182;-71
2021/11/02 02:26:56;;;;;;;5.97;2.87;;;;;;;;;;4993091;28;20679;-71
2021/11/02 02:30:06;;;;;;;4.90;3.37;;;;;;;;;;4987006;28;20209;-71
2021/11/02 02:33:11;;;;;;;3.53;3.00;;;;;;;;;;4993457;28;20190;-70
2021/11/02 02:36:17;;;;;;;3.77;3.43;;;;;;;;;;4992697;28;20182;-71
2021/11/02 02:39:37;;;;;;;4.87;3.30;;;;;;;;;;4993086;28;20199;-71
2021/11/02 02:42:51;;;;;;;3.30;2.70;;;;;;;;;;4992976;28;20186;-71
2021/11/02 02:45:59;;;;;;;4.53;3.73;;;;;;;;;;4993153;28;20210;-71
2021/11/02 02:49:05;;;;;;;3.80;3.40;;;;;;;;;;4992511;28;20194;-71
2021/11/02 02:52:13;;;;;;;5.03;3.50;;;;;;;;;;4992965;28;20218;-71
2021/11/02 02:55:20;;;;;;;3.70;3.30;;;;;;;;;;4992668;28;20194;-71
2021/11/02 02:58:25;;;;;;;6.50;3.67;;;;;;;;;;4981364;28;20198;-71
2021/11/02 03:01:29;;;;;;;3.70;3.40;;;;;;;;;;4981457;28;20222;-71
2021/11/02 03:04:34;;;;;;;5.03;3.30;;;;;;;;;;4995332;28;20202;-71
2021/11/02 03:07:45;;;;;;;4.67;3.20;;;;;;;;;;4997333;28;20194;-71
2021/11/02 03:10:52;;;;;;;4.23;3.50;;;;;;;;;;4996178;28;20704;-71
2021/11/02 03:14:01;;;;;;;5.20;3.40;;;;;;;;;;4997637;28;20178;-71
2021/11/02 03:17:10;;;;;;;4.57;3.10;;;;;;;;;;4997321;28;20194;-71
2021/11/02 03:20:50;;;;;;;3.23;2.80;;;;;;;;;;4996370;28;20198;-71
2021/11/02 03:44:48;;;;;;;7.20;5.33;;;;;;;;;;4977948;28;20191;-71
2021/11/02 03:57:58;;;;;;;7.77;5.47;;;;;;;;;;4995813;28;20186;-71
2021/11/02 04:01:57;;;;;;;9.20;6.10;;;;;;;;;;4976247;28;20234;-71
2021/11/02 05:47:40;;;;;;;7.83;5.90;;;;;;;;;;4994839;28;20214;-87
2021/11/02 05:57:59;;;;;;;8.87;6.37;;;;;;;;;;5039484;28;20184;-88
2021/11/02 06:04:28;;;;;;;7.77;6.07;;;;;;;;;;5060402;28;20188;-86
2021/11/02 06:07:48;;;;;;;8.13;6.40;;;;;;;;;;5053581;28;20172;-87
2021/11/02 06:11:20;;;;;;;9.17;6.67;;;;;;;;;;5061131;28;20642;-87
2021/11/02 06:28:32;;;;;;;7.57;6.50;;;;;;;;;;5062979;28;20188;-87
2021/11/02 06:31:39;;;;;;;9.53;6.50;;;;;;;;;;5054910;28;20184;-87
2021/11/02 06:58:16;;;;;;;7.73;5.37;;;;;;;;;;5031407;28;20201;-87
2021/11/02 07:18:22;;;;;;;5.80;4.47;;;;;;;;;;5035541;28;20193;-87
2021/11/02 07:21:40;;;;;;;7.47;4.93;;;;;;;;;;5010504;28;20185;-88
2021/11/02 07:28:16;;;;;;;21.47;10.63;;;;;;;;;;5020228;28;20185;-87
2021/11/02 08:47:03;;;;;;;3.33;2.87;;;;;;;;;;5002352;28;20221;-87
2021/11/02 08:50:09;;;;;;;6.27;5.67;;;;;;;;;;5041494;28;20219;-87
2021/11/02 08:53:13;;;;;;;5.37;4.30;;;;;;;;;;5031183;28;20180;-87
2021/11/02 08:56:18;;;;;;;4.57;3.43;;;;;;;;;;5014495;28;20229;-87
2021/11/02 08:59:22;;;;;;;4.57;3.17;;;;;;;;;;5025208;28;20198;-87
2021/11/02 09:02:35;;;;;;;3.73;3.30;;;;;;;;;;5016981;28;20191;-87
2021/11/02 09:05:42;;;;;;;5.67;3.43;;;;;;;;;;5053330;28;20686;-87
2021/11/02 09:08:54;;;;;;;3.73;3.20;;;;;;;;;;5031095;28;20176;-87
2021/11/02 09:12:01;;;;;;;3.77;2.93;;;;;;;;;;5030898;28;20177;-87
2021/11/02 09:15:05;;;;;;;4.00;3.23;;;;;;;;;;5053410;28;20211;-87
2021/11/02 09:18:11;;;;;;;3.67;2.40;;;;;;;;;;5030695;28;20176;-87
2021/11/02 09:21:16;;;;;;;3.70;3.03;;;;;;;;;;5041399;28;20188;-87
2021/11/02 09:24:22;;;;;;;4.00;2.37;;;;;;;;;;5052914;28;20184;-87
2021/11/02 09:27:27;;;;;;;3.23;2.10;;;;;;;;;;5041420;28;20184;-87
2021/11/02 09:30:32;;;;;;;3.97;2.10;;;;;;;;;;5053174;28;20671;-87
2021/11/02 09:33:37;;;;;;;2.50;1.80;;;;;;;;;;5030861;28;20184;-87
2021/11/02 09:37:05;;;;;;;2.30;1.60;;;;;;;;;;5029994;28;20216;-87
2021/11/02 09:40:27;;;;;;;4.30;1.90;;;;;;;;;;5052936;28;20172;-87
2021/11/02 09:43:48;;;;;;;2.20;1.50;;;;;;;;;;5042007;28;20620;-87
2021/11/02 09:46:59;;;;;;;2.27;1.70;;;;;;;;;;5052764;28;20216;-88
2021/11/02 09:50:32;;;;;;;2.97;1.33;;;;;;;;;;5041203;28;20224;-88
2021/11/02 09:54:13;;;;;;;4.20;1.70;;;;;;;;;;5030056;28;20524;-88
2021/11/02 09:57:23;;;;;;;2.37;1.70;;;;;;;;;;5041696;28;20180;-88
2021/11/02 10:00:54;;;;;;;2.00;1.67;;;;;;;;;;5030581;28;20184;-88
2021/11/02 10:04:25;;;;;;;1.70;1.60;;;;;;;;;;5013205;28;20185;-87
2021/11/02 10:07:56;;;;;;;1.53;1.40;;;;;;;;;;4990815;28;20185;-88
2021/11/02 10:11:36;;;;;;;2.37;1.97;;;;;;;;;;4990442;28;20205;-88
2021/11/02 10:15:05;;;;;;;1.90;1.60;;;;;;;;;;5028733;28;20188;-88
2021/11/02 10:18:29;;;;;;;1.90;1.70;;;;;;;;;;5025151;28;20189;-87
2021/11/02 10:21:39;;;;;;;2.20;1.47;;;;;;;;;;5002482;28;20174;-87
2021/11/02 10:25:25;;;;;;;2.57;1.50;;;;;;;;;;5013045;28;20178;-87
2021/11/02 10:28:53;;;;;;;2.27;1.50;;;;;;;;;;5009082;28;20185;-87
2021/11/02 10:32:06;;;;;;;2.13;1.20;;;;;;;;;;5021061;28;20208;-88
2021/11/02 10:35:53;;;;;;;2.63;1.40;;;;;;;;;;5024780;28;20224;-87
2021/11/02 10:39:17;;;;;;;1.40;1.20;;;;;;;;;;5013763;28;20190;-87
2021/11/02 10:42:43;;;;;;;1.50;1.00;;;;;;;;;;5013686;28;20177;-87
2021/11/02 10:45:57;;;;;;;2.43;1.10;;;;;;;;;;5024816;28;20682;-88
2021/11/02 10:49:13;;;;;;;1.87;1.00;;;;;;;;;;5013902;28;20205;-88
2021/11/02 10:52:38;;;;;;;1.63;1.03;;;;;;;;;;5013662;28;20636;-88
2021/11/02 10:56:19;;;;;;;3.10;0.90;;;;;;;;;;5024421;28;20552;-88
2021/11/02 10:59:29;;;;;;;1.60;1.17;;;;;;;;;;5024690;28;20177;-88
2021/11/02 11:02:34;;;;;;;2.90;1.17;;;;;;;;;;5013319;28;20533;-88
2021/11/02 11:05:40;;;;;;;1.20;0.80;;;;;;;;;;5036113;28;20224;-88
2021/11/02 11:08:47;;;;;;;3.27;1.30;;;;;;;;;;5013228;28;20177;-88
2021/11/02 11:11:55;;;;;;;2.60;0.97;;;;;;;;;;5024312;28;20201;-88
2021/11/02 11:15:02;;;;;;;2.20;1.60;;;;;;;;;;5012970;28;20220;-88
2021/11/02 11:18:09;;;;;;;4.70;2.00;;;;;;;;;;5012684;28;20672;-88
2021/11/02 11:21:14;;;;;;;3.20;1.50;;;;;;;;;;5012790;28;20193;-88
2021/11/02 11:24:25;;;;;;;3.40;1.50;;;;;;;;;;5023795;28;20181;-88
2021/11/02 11:27:33;;;;;;;1.93;0.90;;;;;;;;;;5012689;28;20180;-88
2021/11/02 11:30:40;;;;;;;2.60;1.00;;;;;;;;;;5023759;28;20667;-87
2021/11/02 11:33:45;;;;;;;2.17;1.20;;;;;;;;;;5012427;28;20203;-88
2021/11/02 11:36:55;;;;;;;1.43;1.07;;;;;;;;;;5011451;28;20224;-88
2021/11/02 11:40:01;;;;;;;1.87;1.03;;;;;;;;;;5008925;28;20181;-87
2021/11/02 11:43:08;;;;;;;2.00;1.20;;;;;;;;;;5012542;28;20200;-87
2021/11/02 11:46:14;;;;;;;1.30;0.83;;;;;;;;;;5005027;28;20225;-87
2021/11/02 11:49:23;;;;;;;3.03;1.10;;;;;;;;;;5012239;28;20213;-87
2021/11/02 11:52:27;;;;;;;2.43;1.00;;;;;;;;;;5023759;28;20208;-87
2021/11/02 11:55:44;;;;;;;0.70;0.60;;;;;;;;;;5014717;28;20220;-87
2021/11/02 11:58:51;;;;;;;2.70;1.00;;;;;;;;;;5004122;28;20178;-87
2021/11/02 12:02:08;;;;;;;2.33;1.00;;;;;;;;;;5029005;28;20189;-87
2021/11/02 12:05:17;;;;;;;2.50;0.80;;;;;;;;;;5021714;28;20220;-87
2021/11/02 12:08:44;;;;;;;5.40;3.00;;;;;;;;;;5023066;28;20196;-87
2021/11/02 12:11:49;;;;;;;1.73;1.30;;;;;;;;;;5014136;28;20202;-87
2021/11/02 12:14:54;;;;;;;4.03;1.10;;;;;;;;;;5006670;28;20184;-87
2021/11/02 12:18:00;;;;;;;3.00;1.20;;;;;;;;;;5021741;28;20200;-87
2021/11/02 12:21:05;;;;;;;2.63;1.87;;;;;;;;;;5023201;28;20655;-87
2021/11/02 12:24:12;;;;;;;3.70;2.60;;;;;;;;;;5023171;28;20185;-87
2021/11/02 12:27:21;;;;;;;6.50;3.07;;;;;;;;;;5034756;28;20197;-87
2021/11/02 12:30:26;;;;;;;4.83;2.80;;;;;;;;;;5003183;28;20194;-86
2021/11/02 12:33:32;;;;;;;10.43;4.90;;;;;;;;;;5012225;28;20659;-86
2021/11/02 12:36:44;;;;;;;19.10;7.93;;;;;;;;;;5010735;28;20216;-86
2021/11/02 12:39:49;;;;;;;37.67;14.00;;;;;;;;;;5033940;28;20181;-87
2021/11/02 12:42:54;;;;;;;25.77;9.60;;;;;;;;;;5010654;28;20189;-87
2021/11/02 12:46:02;;;;;;;17.40;5.17;;;;;;;;;;5013817;28;20225;-87
2021/11/02 12:49:08;;;;;;;28.43;10.53;;;;;;;;;;5002817;28;20201;-87
2021/11/02 12:52:14;;;;;;;91.17;34.73;;;;;;;;;;5006013;28;20205;-87
2021/11/02 12:55:19;;;;;;;85.47;47.27;;;;;;;;;;5021786;28;20221;-87
2021/11/02 12:58:24;;;;;;;42.23;25.07;;;;;;;;;;5021877;28;20177;-87
2021/11/02 13:01:37;;;;;;;20.10;13.00;;;;;;;;;;5002428;28;20193;-87
2021/11/02 13:04:43;;;;;;;3.27;2.07;;;;;;;;;;5008369;28;20197;-87
2021/11/02 13:07:49;;;;;;;3.37;1.77;;;;;;;;;;5021614;28;20188;-87
2021/11/02 13:11:03;;;;;;;1.63;0.60;;;;;;;;;;5010817;28;20212;-87
2021/11/02 13:14:12;;;;;;;0.67;0.57;;;;;;;;;;5032130;28;20196;-87
2021/11/02 13:17:19;;;;;;;2.20;0.90;;;;;;;;;;5033774;28;20181;-87
2021/11/02 13:20:30;;;;;;;4.63;2.07;;;;;;;;;;5013674;28;20186;-87
2021/11/02 13:23:41;;;;;;;3.80;1.90;;;;;;;;;;5010156;28;20197;-87
2021/11/02 13:26:51;;;;;;;5.00;3.30;;;;;;;;;;5032968;28;20687;-87
2021/11/02 13:29:55;;;;;;;5.50;2.23;;;;;;;;;;5010517;28;20177;-87
2021/11/02 13:33:19;;;;;;;4.53;1.83;;;;;;;;;;5021235;28;20205;-87
2021/11/02 13:36:23;;;;;;;2.63;1.30;;;;;;;;;;5010567;28;20216;-87
2021/11/02 13:39:29;;;;;;;3.03;1.50;;;;;;;;;;5012973;28;20200;-87
2021/11/02 13:42:52;;;;;;;2.17;1.30;;;;;;;;;;5024410;28;20189;-87
2021/11/02 13:45:57;;;;;;;3.17;1.30;;;;;;;;;;5010004;28;20221;-87
2021/11/02 13:49:02;;;;;;;2.10;1.17;;;;;;;;;;5032297;28;20690;-87
2021/11/02 13:52:10;;;;;;;3.60;1.40;;;;;;;;;;5019844;28;20312;-87
2021/11/02 13:55:14;;;;;;;2.23;1.07;;;;;;;;;;5021468;28;20225;-87
2021/11/02 13:58:18;;;;;;;1.50;1.00;;;;;;;;;;5033039;28;20208;-87
2021/11/02 14:01:34;;;;;;;1.83;0.90;;;;;;;;;;5003286;28;20553;-87
2021/11/02 14:04:43;;;;;;;1.60;0.90;;;;;;;;;;5021465;28;20189;-87
2021/11/02 14:07:47;;;;;;;1.97;0.70;;;;;;;;;;5010521;28;20185;-88
2021/11/02 14:10:54;;;;;;;1.03;0.60;;;;;;;;;;5010840;28;20180;-88
2021/11/02 14:13:58;;;;;;;1.20;0.80;;;;;;;;;;5036762;28;20208;-88
2021/11/02 14:17:19;;;;;;;0.87;0.70;;;;;;;;;;5013773;28;20205;-89
2021/11/02 14:20:40;;;;;;;0.83;0.63;;;;;;;;;;5013549;28;20189;-89
2021/11/02 14:23:52;;;;;;;1.73;1.00;;;;;;;;;;5005831;28;20182;-89
2021/11/02 14:26:56;;;;;;;3.77;1.00;;;;;;;;;;5017046;28;20217;-88
2021/11/02 14:30:00;;;;;;;1.60;0.80;;;;;;;;;;5000965;28;20656;-88
2021/11/02 14:33:08;;;;;;;0.93;0.60;;;;;;;;;;5024369;28;20208;-88
2021/11/02 14:36:14;;;;;;;0.60;0.60;;;;;;;;;;5036003;28;20580;-89
2021/11/02 14:39:56;;;;;;;2.27;1.60;;;;;;;;;;5025037;28;20552;-88
2021/11/02 14:43:12;;;;;;;2.23;1.23;;;;;;;;;;5005353;28;20185;-88
2021/11/02 14:46:21;;;;;;;4.77;1.83;;;;;;;;;;5035362;28;20565;-88
2021/11/02 14:49:29;;;;;;;1.53;1.40;;;;;;;;;;5013379;28;20205;-89
2021/11/02 14:52:36;;;;;;;1.10;1.00;;;;;;;;;;5024461;28;20209;-88
2021/11/02 14:55:52;;;;;;;2.37;0.80;;;;;;;;;;5024499;28;20216;-88
2021/11/02 14:58:59;;;;;;;1.00;0.70;;;;;;;;;;5013128;28;20521;-89
2021/11/02 15:02:07;;;;;;;0.80;0.80;;;;;;;;;;5025051;28;20185;-88
2021/11/02 15:05:15;;;;;;;0.90;0.70;;;;;;;;;;5035273;28;20221;-88
2021/11/02 15:08:21;;;;;;;2.43;0.90;;;;;;;;;;5035684;28;20181;-88
2021/11/02 15:11:25;;;;;;;1.10;0.80;;;;;;;;;;5012913;28;20220;-88
2021/11/02 15:14:35;;;;;;;0.93;0.70;;;;;;;;;;5024019;28;20193;-88
2021/11/02 15:17:40;;;;;;;0.90;0.60;;;;;;;;;;5024407;28;20169;-88
2021/11/02 15:20:44;;;;;;;1.17;0.73;;;;;;;;;;5035409;28;20189;-88
2021/11/02 15:23:51;;;;;;;0.97;0.60;;;;;;;;;;5013190;28;20192;-88
2021/11/02 15:27:03;;;;;;;0.77;0.60;;;;;;;;;;5024009;28;20220;-88
2021/11/02 15:30:11;;;;;;;0.70;0.60;;;;;;;;;;5024056;28;20185;-88
2021/11/02 15:33:26;;;;;;;1.20;0.70;;;;;;;;;;5013008;28;20563;-88
2021/11/02 15:36:30;;;;;;;2.73;1.60;;;;;;;;;;5013044;28;20229;-88
2021/11/02 15:39:35;;;;;;;2.13;1.60;;;;;;;;;;5010514;28;20188;-88
2021/11/02 15:42:44;;;;;;;2.57;1.27;;;;;;;;;;5024045;28;20193;-89
2021/11/02 15:45:48;;;;;;;1.73;0.80;;;;;;;;;;5035360;28;20216;-89
2021/11/02 15:48:55;;;;;;;1.43;1.10;;;;;;;;;;5012580;28;20571;-90
2021/11/02 15:52:00;;;;;;;0.97;0.80;;;;;;;;;;5012422;28;20201;-88
2021/11/02 15:55:20;;;;;;;1.37;0.70;;;;;;;;;;5035201;28;20216;-89
2021/11/02 15:58:25;;;;;;;0.90;0.80;;;;;;;;;;5012541;28;20181;-88
2021/11/02 16:01:50;;;;;;;0.67;0.50;;;;;;;;;;5024040;28;20177;-88
2021/11/02 16:05:05;;;;;;;4.00;0.60;;;;;;;;;;5012391;28;20185;-88
2021/11/02 16:08:18;;;;;;;0.73;0.60;;;;;;;;;;5023954;28;20185;-88
2021/11/02 16:11:23;;;;;;;0.80;0.50;;;;;;;;;;5023734;28;20181;-89
2021/11/02 16:14:28;;;;;;;37.80;20.60;;;;;;;;;;5035154;28;20189;-88
2021/11/02 16:17:51;;;;;;;8.53;4.77;;;;;;;;;;5034132;28;20185;-88
2021/11/02 16:21:02;;;;;;;3.13;1.20;;;;;;;;;;5031276;28;20197;-88
2021/11/02 16:24:09;;;;;;;1.50;0.80;;;;;;;;;;5021400;28;20208;-87
2021/11/02 16:27:21;;;;;;;1.70;0.70;;;;;;;;;;5021046;28;20196;-87
2021/11/02 16:30:34;;;;;;;0.83;0.70;;;;;;;;;;4999165;28;20200;-86
2021/11/02 16:33:43;;;;;;;0.70;0.53;;;;;;;;;;4989435;28;20213;-87
2021/11/02 16:36:47;;;;;;;1.00;0.60;;;;;;;;;;5018908;28;20696;-87
2021/11/02 16:40:22;;;;;;;0.50;0.50;;;;;;;;;;5017520;28;20183;-87
2021/11/02 16:43:39;;;;;;;4.60;0.70;;;;;;;;;;5040762;28;20176;-88
2021/11/02 16:46:47;;;;;;;1.67;0.80;;;;;;;;;;5039287;28;20220;-86
2021/11/02 16:50:04;;;;;;;0.97;0.70;;;;;;;;;;5051237;28;20216;-88
2021/11/02 16:53:13;;;;;;;0.97;0.87;;;;;;;;;;5029479;28;20675;-86
2021/11/02 16:56:24;;;;;;;0.90;0.80;;;;;;;;;;5022470;28;20217;-87
2021/11/02 16:59:37;;;;;;;3.37;1.10;;;;;;;;;;5002647;28;20197;-88
2021/11/02 17:02:48;;;;;;;0.70;0.63;;;;;;;;;;5007870;28;20177;-88
2021/11/02 17:05:52;;;;;;;1.60;0.80;;;;;;;;;;4999472;28;20220;-88
2021/11/02 17:08:59;;;;;;;1.90;1.50;;;;;;;;;;5019310;28;20637;-87
2021/11/02 17:12:09;;;;;;;1.30;1.20;;;;;;;;;;5007837;28;20208;-89
2021/11/02 17:15:19;;;;;;;2.77;1.60;;;;;;;;;;5007546;28;20220;-89
2021/11/02 17:18:26;;;;;;;1.90;1.50;;;;;;;;;;5000047;28;20186;-88
2021/11/02 17:21:31;;;;;;;3.00;2.30;;;;;;;;;;5031183;28;20177;-87
2021/11/02 17:24:36;;;;;;;4.77;2.03;;;;;;;;;;5022823;28;20193;-87
2021/11/02 17:27:41;;;;;;;3.77;2.07;;;;;;;;;;5018052;28;20200;-87
2021/11/02 17:30:46;;;;;;;5.67;1.93;;;;;;;;;;5047421;22;20216;-89
2021/11/02 17:33:52;;;;;;;2.53;1.73;;;;;;;;;;5033083;28;20200;-90
2021/11/02 17:36:58;;;;;;;3.67;2.70;;;;;;;;;;5035202;28;20201;-91
2021/11/02 17:40:04;;;;;;;3.07;2.07;;;;;;;;;;5009159;28;20173;-91
2021/11/02 17:43:09;;;;;;;5.30;1.40;;;;;;;;;;5000299;28;20181;-91
2021/11/02 17:46:19;;;;;;;2.13;1.40;;;;;;;;;;5000573;28;20189;-90
2021/11/02 17:49:23;;;;;;;1.00;0.90;;;;;;;;;;4999671;28;20202;-91
2021/11/02 17:52:28;;;;;;;1.30;1.20;;;;;;;;;;5010205;28;20228;-91
2021/11/02 17:55:35;;;;;;;1.10;0.90;;;;;;;;;;4999966;28;20193;-91
2021/11/02 17:58:42;;;;;;;1.80;1.00;;;;;;;;;;4999666;28;20185;-91
2021/11/02 18:01:47;;;;;;;3.13;1.00;;;;;;;;;;4999183;28;20216;-91
2021/11/02 18:04:52;;;;;;;2.10;1.00;;;;;;;;;;4999758;28;20173;-91
2021/11/02 18:07:59;;;;;;;1.63;1.27;;;;;;;;;;4999395;28;20214;-91
2021/11/02 18:11:04;;;;;;;1.23;1.00;;;;;;;;;;4999243;28;20216;-91
2021/11/02 18:14:10;;;;;;;2.60;0.80;;;;;;;;;;4960062;28;20214;-91
2021/11/02 18:17:16;;;;;;;1.40;0.70;;;;;;;;;;4981915;28;20193;-91
2021/11/02 18:20:27;;;;;;;1.20;0.93;;;;;;;;;;4990478;28;20186;-91
2021/11/02 18:33:12;;;;;;;1.60;0.90;;;;;;;;;;4951171;29;20750;-73
2021/11/02 18:36:19;;;;;;;1.30;1.10;;;;;;;;;;4933469;28;20191;-73
2021/11/02 18:39:24;;;;;;;1.53;1.00;;;;;;;;;;4968860;28;20195;-72
2021/11/02 18:42:28;;;;;;;1.20;1.00;;;;;;;;;;4970528;28;20222;-73
2021/11/02 18:45:33;;;;;;;1.37;0.70;;;;;;;;;;4967293;28;20190;-73
2021/11/02 18:48:38;;;;;;;1.70;0.90;;;;;;;;;;4934120;28;20191;-73
2021/11/02 18:51:43;;;;;;;1.43;0.90;;;;;;;;;;4928405;29;20219;-73
2021/11/02 18:54:47;;;;;;;1.30;0.80;;;;;;;;;;4940221;29;20192;-73
2021/11/02 18:57:53;;;;;;;5.20;0.93;;;;;;;;;;4960612;28;20214;-73
2021/11/02 19:00:57;;;;;;;0.93;0.80;;;;;;;;;;4956023;28;20653;-73
2021/11/02 19:04:01;;;;;;;0.90;0.80;;;;;;;;;;4964626;28;20194;-73
2021/11/02 19:07:05;;;;;;;1.27;0.80;;;;;;;;;;4939320;29;20191;-73
2021/11/02 19:10:10;;;;;;;1.20;0.90;;;;;;;;;;4932123;29;20203;-73
2021/11/02 19:13:14;;;;;;;1.10;0.90;;;;;;;;;;4942316;29;20215;-73
2021/11/02 19:16:19;;;;;;;1.00;0.90;;;;;;;;;;4959716;28;20199;-73
2021/11/02 19:19:23;;;;;;;1.40;1.20;;;;;;;;;;4935252;29;20196;-73
2021/11/02 19:22:27;;;;;;;2.60;2.20;;;;;;;;;;4922932;29;20220;-73
2021/11/02 19:25:33;;;;;;;4.03;2.30;;;;;;;;;;4950842;28;20199;-73
2021/11/02 19:28:39;;;;;;;4.53;2.67;;;;;;;;;;4973379;28;20195;-73
2021/11/02 19:31:43;;;;;;;3.40;3.10;;;;;;;;;;4961227;28;20236;-73
2021/11/02 19:34:47;;;;;;;10.27;4.00;;;;;;;;;;4971384;28;20587;-73
2021/11/02 19:37:51;;;;;;;5.73;4.70;;;;;;;;;;4972821;28;20182;-72
2021/11/02 19:40:55;;;;;;;6.57;5.23;;;;;;;;;;4972878;28;20648;-74
2021/11/02 19:43:59;;;;;;;7.73;3.87;;;;;;;;;;4971636;28;20195;-73
2021/11/02 19:47:05;;;;;;;4.13;2.87;;;;;;;;;;4953741;29;20180;-73
2021/11/02 19:50:11;;;;;;;2.87;2.60;;;;;;;;;;4953856;29;20195;-73
2021/11/02 19:53:20;;;;;;;3.60;2.80;;;;;;;;;;4955204;28;20211;-73
2021/11/02 19:56:24;;;;;;;5.70;3.57;;;;;;;;;;4960793;28;20199;-73
2021/11/02 19:59:29;;;;;;;2.57;2.00;;;;;;;;;;4969872;28;20207;-73
2021/11/02 20:02:34;;;;;;;2.67;2.10;;;;;;;;;;4953258;29;20219;-73
2021/11/02 20:05:40;;;;;;;2.77;2.40;;;;;;;;;;4972243;28;20195;-73
2021/11/02 20:08:49;;;;;;;2.73;2.43;;;;;;;;;;4961654;28;20195;-73
2021/11/02 20:11:59;;;;;;;2.03;1.83;;;;;;;;;;4953250;29;20219;-73
2021/11/02 20:15:04;;;;;;;6.77;2.00;;;;;;;;;;4968388;28;20195;-73
2021/11/02 20:18:11;;;;;;;2.57;2.07;;;;;;;;;;4968009;28;20207;-73
2021/11/02 20:21:16;;;;;;;2.83;2.10;;;;;;;;;;4940909;29;20574;-73
2021/11/02 20:24:21;;;;;;;2.23;1.97;;;;;;;;;;4959022;28;20191;-73
2021/11/02 20:27:26;;;;;;;1.97;1.60;;;;;;;;;;4960319;28;20650;-73
2021/11/02 20:30:30;;;;;;;2.37;1.77;;;;;;;;;;4937624;28;20203;-73
2021/11/02 20:33:35;;;;;;;1.90;1.33;;;;;;;;;;4956221;28;20214;-73
2021/11/02 20:36:41;;;;;;;1.80;1.50;;;;;;;;;;4972083;28;20186;-73
2021/11/02 20:39:59;;;;;;;2.13;1.70;;;;;;;;;;4942176;28;20195;-73
2021/11/02 20:43:21;;;;;;;2.20;1.60;;;;;;;;;;4952773;28;20192;-73
2021/11/02 20:46:28;;;;;;;1.83;1.60;;;;;;;;;;4952273;28;20200;-73
2021/11/02 20:49:35;;;;;;;2.17;1.83;;;;;;;;;;4945251;28;20187;-73
2021/11/02 20:52:39;;;;;;;2.40;1.70;;;;;;;;;;4971763;28;20238;-73
2021/11/02 20:55:44;;;;;;;2.43;1.53;;;;;;;;;;4959583;28;20198;-73
2021/11/02 20:58:48;;;;;;;2.10;1.83;;;;;;;;;;4969299;28;20191;-73
2021/11/02 21:01:53;;;;;;;5.47;1.90;;;;;;;;;;4933127;29;20219;-73
2021/11/02 21:04:58;;;;;;;2.43;1.80;;;;;;;;;;4933347;29;20192;-73
2021/11/02 21:08:10;;;;;;;2.30;1.73;;;;;;;;;;4921439;29;20644;-73
2021/11/02 21:11:19;;;;;;;1.90;1.73;;;;;;;;;;4923170;28;20219;-73
2021/11/02 21:14:25;;;;;;;2.00;1.57;;;;;;;;;;4934383;28;20228;-73
2021/11/02 21:17:34;;;;;;;5.80;1.80;;;;;;;;;;4932920;29;20208;-73
2021/11/02 21:20:39;;;;;;;2.20;1.97;;;;;;;;;;4958511;28;20230;-73
2021/11/02 21:23:45;;;;;;;2.10;1.90;;;;;;;;;;4951928;28;20195;-73
2021/11/02 21:26:50;;;;;;;2.10;1.90;;;;;;;;;;4921095;29;20204;-73
2021/11/02 21:29:54;;;;;;;3.80;2.67;;;;;;;;;;4943181;28;20199;-73
2021/11/02 21:32:59;;;;;;;2.90;2.33;;;;;;;;;;4944499;29;20195;-73
2021/11/02 21:36:03;;;;;;;2.80;2.37;;;;;;;;;;4967813;28;20187;-73
2021/11/02 21:39:08;;;;;;;2.47;2.10;;;;;;;;;;4970755;28;20195;-73
2021/11/02 21:42:26;;;;;;;2.07;1.70;;;;;;;;;;4964685;28;20702;-73
2021/11/02 21:45:36;;;;;;;3.00;1.70;;;;;;;;;;4955167;29;20184;-73
2021/11/02 21:49:09;;;;;;;2.30;1.90;;;;;;;;;;4955121;29;20183;-73
2021/11/02 21:52:18;;;;;;;2.20;2.00;;;;;;;;;;4944265;28;20214;-73
2021/11/02 21:55:25;;;;;;;4.03;2.00;;;;;;;;;;4962533;28;20214;-72
2021/11/02 21:58:44;;;;;;;3.73;1.77;;;;;;;;;;4966685;28;20550;-73
2021/11/02 22:01:49;;;;;;;2.20;1.80;;;;;;;;;;4954987;28;20695;-72
2021/11/02 22:04:55;;;;;;;2.20;1.93;;;;;;;;;;4951424;28;20561;-73
2021/11/02 22:07:59;;;;;;;1.93;1.70;;;;;;;;;;4961924;28;20630;-73
2021/11/02 22:11:05;;;;;;;2.30;1.80;;;;;;;;;;4954815;29;20219;-72
2021/11/02 22:14:13;;;;;;;2.47;1.80;;;;;;;;;;4962396;28;20207;-73
2021/11/02 22:17:16;;;;;;;2.20;1.70;;;;;;;;;;4974409;28;20642;-73
2021/11/02 22:20:21;;;;;;;3.73;2.00;;;;;;;;;;4974288;28;20183;-73
2021/11/02 22:23:25;;;;;;;5.20;2.27;;;;;;;;;;4963876;28;20663;-73
2021/11/02 22:26:30;;;;;;;3.77;2.60;;;;;;;;;;4935984;29;20649;-73
2021/11/02 22:29:35;;;;;;;2.73;2.10;;;;;;;;;;4938446;28;20624;-73
2021/11/02 22:32:40;;;;;;;2.20;2.00;;;;;;;;;;4964189;28;20223;-73
2021/11/02 22:35:46;;;;;;;1.97;1.67;;;;;;;;;;4960825;28;20658;-73
2021/11/02 22:38:50;;;;;;;2.97;1.90;;;;;;;;;;4978011;28;20179;-72
2021/11/02 22:41:54;;;;;;;1.93;1.63;;;;;;;;;;4963738;28;20701;-73
2021/11/02 22:44:59;;;;;;;2.20;1.80;;;;;;;;;;4958238;28;20196;-73
2021/11/02 22:48:06;;;;;;;2.00;1.50;;;;;;;;;;4958333;28;20550;-73
2021/11/02 22:51:10;;;;;;;2.80;1.90;;;;;;;;;;4958074;28;20223;-73
2021/11/02 22:54:16;;;;;;;2.20;1.97;;;;;;;;;;4960298;28;20211;-73
2021/11/02 22:57:21;;;;;;;1.90;1.60;;;;;;;;;;4916837;29;20181;-72
2021/11/02 23:00:28;;;;;;;2.30;2.03;;;;;;;;;;4967624;28;20198;-73
2021/11/02 23:03:32;;;;;;;3.13;1.60;;;;;;;;;;4977249;28;20186;-72
2021/11/02 23:06:38;;;;;;;1.77;1.50;;;;;;;;;;4940568;29;20200;-72
2021/11/02 23:09:43;;;;;;;2.57;1.77;;;;;;;;;;4949083;28;20199;-72
2021/11/02 23:12:47;;;;;;;4.37;2.00;;;;;;;;;;4972013;28;20195;-73
2021/11/02 23:15:52;;;;;;;1.90;1.70;;;;;;;;;;4957679;28;20582;-73
2021/11/02 23:18:55;;;;;;;3.07;1.70;;;;;;;;;;4958778;28;20184;-73
2021/11/02 23:22:26;;;;;;;2.60;1.87;;;;;;;;;;4956953;28;20218;-72
2021/11/02 23:25:37;;;;;;;3.10;2.63;;;;;;;;;;4976974;28;20179;-73
2021/11/02 23:28:44;;;;;;;2.50;2.30;;;;;;;;;;4965387;28;20893;-73
2021/11/02 23:31:51;;;;;;;2.87;2.30;;;;;;;;;;5008715;23;20688;-86
2021/11/02 23:34:56;;;;;;;2.60;2.40;;;;;;;;;;4988412;28;20205;-86
2021/11/02 23:38:00;;;;;;;4.13;2.90;;;;;;;;;;4989114;28;20187;-86
2021/11/02 23:41:08;;;;;;;3.03;2.20;;;;;;;;;;4973293;28;20652;-86
2021/11/02 23:44:12;;;;;;;4.00;2.30;;;;;;;;;;4984648;28;20538;-86